Naples, FL (34101)

4:38 AM EST on March 06, 2015 (GMT -0500)
KFLNAPLE31 | Change Station
CLOSE
Current Station
Personal Weather Station
Location: Naples, FL
Elevation: 20 ft
Nearby Weather Stations
Active Advisory: Dense Fog Advisory

Elev 20 ft 26.16 °N, 81.78 °W | Updated 3 seconds ago

Fog
Fog
69.7 °F
Feels Like 69.7 °F
N
0.0
Wind Variable Wind from NE
Gusts 0.0 mph

Today
High -- | Low -- °F
--% Chance of Precip.
Yesterday
High -- | Low -- °F
Precip. -- in
6:45 AM 6:31 PM
Full, 100% visible
Pressure 30.11 in
Visibility 0.2 miles
Clouds
Dew Point 68 °F
Humidity 94%
Rainfall in
Snow Depth Not available.
UV Not available.
Pollen 10.30 out of 12
Air Quality Not available.
Flu Activity Not available.
METAR KAPF 060853Z AUTO 00000KT 1/4SM FG VV002 21/21 A3011 RMK AO2 SLP196 T02060206 58004

More Conditions Fewer Conditions

Pressure 30.11 in
Visibility 0.2 miles
Clouds
Dew Point 68 °F
Humidity 94%
Rainfall in
Snow Depth Not available.
UV Not available.
Pollen 10.30 out of 12
Air Quality Not available.
Flu Activity Not available.
METAR KAPF 060853Z AUTO 00000KT 1/4SM FG VV002 21/21 A3011 RMK AO2 SLP196 T02060206 58004

More Conditions Fewer Conditions

10-Day Weather Forecast

Almanac

Astronomy

Mar. 06, 2015 Rise Set
Actual Time
Civil Twilight
Nautical Twilight
Astronomical Twilight
Moon
Length of Visible Light
Length of Day
Tomorrow will be .
, % of the Moon is Illuminated

Today's Extremes

State Highs State Lows

Community

WunderPhotos

Upload Photos

1,803,214 photos uploaded!

WunderBlogs® & News

Nearby

Air Quality

  Air Quality AQ Index Pollutant
Not available.

Snow Depth

Station Depth Elevation

Earthquake Activity

City Distance Mag. Time & Date
Minimum magnitude displayed is 2.5.

Coastal Water Temperatures

Place Temperature

Nearby Weather Stations

Dense Fog Advisory
Statement as of 3:17 AM EST on March 06, 2015

... Dense fog advisory in effect until 8 am EST this morning...

The National Weather Service in Miami has issued a dense fog
advisory... which is in effect until 8 am EST this morning.

* Visibility... one quarter mile or less possible.

* Impacts... driving may be hazardous in areas with low
visibility.

Precautionary/preparedness actions...

A dense fog advisory means visibilities will frequently be
reduced to less than one quarter mile. If driving... slow down...
use your headlights... and leave plenty of distance ahead of you.